sensor_id;sensor_type;location;lat;lon;timestamp;temperature;humidity
70107;DHT22;57473;37.508;15.080;2022-11-28T00:01:32;12.40;80.50
70107;DHT22;57473;37.508;15.080;2022-11-28T00:04:00;12.40;78.90
70107;DHT22;57473;37.508;15.080;2022-11-28T00:06:28;12.40;79.40
70107;DHT22;57473;37.508;15.080;2022-11-28T00:08:57;12.30;78.90
70107;DHT22;57473;37.508;15.080;2022-11-28T00:11:26;12.30;78.90
70107;DHT22;57473;37.508;15.080;2022-11-28T00:13:53;12.30;79.20
70107;DHT22;57473;37.508;15.080;2022-11-28T00:16:22;12.30;78.50
70107;DHT22;57473;37.508;15.080;2022-11-28T00:18:52;12.30;79.20
70107;DHT22;57473;37.508;15.080;2022-11-28T00:21:20;12.30;79.40
70107;DHT22;57473;37.508;15.080;2022-11-28T00:23:47;12.20;79.10
70107;DHT22;57473;37.508;15.080;2022-11-28T00:26:25;12.30;78.10
70107;DHT22;57473;37.508;15.080;2022-11-28T00:28:54;12.30;78.10
70107;DHT22;57473;37.508;15.080;2022-11-28T00:31:24;12.30;77.30
70107;DHT22;57473;37.508;15.080;2022-11-28T00:33:52;12.30;78.50
70107;DHT22;57473;37.508;15.080;2022-11-28T00:36:20;12.30;78.70
70107;DHT22;57473;37.508;15.080;2022-11-28T00:38:47;12.30;77.30
70107;DHT22;57473;37.508;15.080;2022-11-28T00:41:17;12.30;77.70
70107;DHT22;57473;37.508;15.080;2022-11-28T00:43:45;12.20;79.10
70107;DHT22;57473;37.508;15.080;2022-11-28T00:46:14;12.10;80.20
70107;DHT22;57473;37.508;15.080;2022-11-28T00:48:42;12.00;80.30
70107;DHT22;57473;37.508;15.080;2022-11-28T00:53:39;11.90;81.10
70107;DHT22;57473;37.508;15.080;2022-11-28T00:56:10;11.80;79.30
70107;DHT22;57473;37.508;15.080;2022-11-28T00:58:38;11.80;78.30
70107;DHT22;57473;37.508;15.080;2022-11-28T01:01:10;11.90;77.60
70107;DHT22;57473;37.508;15.080;2022-11-28T01:03:38;11.90;76.70
70107;DHT22;57473;37.508;15.080;2022-11-28T01:06:06;11.90;77.00
70107;DHT22;57473;37.508;15.080;2022-11-28T01:08:34;11.90;76.00
70107;DHT22;57473;37.508;15.080;2022-11-28T01:11:02;12.00;75.30
70107;DHT22;57473;37.508;15.080;2022-11-28T01:13:30;12.00;75.80
70107;DHT22;57473;37.508;15.080;2022-11-28T01:15:57;12.00;75.10
70107;DHT22;57473;37.508;15.080;2022-11-28T01:18:25;12.10;74.70
70107;DHT22;57473;37.508;15.080;2022-11-28T01:20:52;12.10;74.30
70107;DHT22;57473;37.508;15.080;2022-11-28T01:23:19;12.10;73.80
70107;DHT22;57473;37.508;15.080;2022-11-28T01:25:46;12.00;74.40
70107;DHT22;57473;37.508;15.080;2022-11-28T01:28:14;12.00;74.80
70107;DHT22;57473;37.508;15.080;2022-11-28T01:30:41;11.90;76.20
70107;DHT22;57473;37.508;15.080;2022-11-28T01:33:08;11.80;75.50
70107;DHT22;57473;37.508;15.080;2022-11-28T01:35:35;11.80;76.60
70107;DHT22;57473;37.508;15.080;2022-11-28T01:38:02;11.80;77.20
70107;DHT22;57473;37.508;15.080;2022-11-28T01:40:29;11.70;77.20
70107;DHT22;57473;37.508;15.080;2022-11-28T01:42:56;11.60;77.30
70107;DHT22;57473;37.508;15.080;2022-11-28T01:45:28;11.60;77.00
70107;DHT22;57473;37.508;15.080;2022-11-28T01:47:59;11.60;76.70
70107;DHT22;57473;37.508;15.080;2022-11-28T01:50:28;11.60;77.10
70107;DHT22;57473;37.508;15.080;2022-11-28T01:53:00;11.60;76.90
70107;DHT22;57473;37.508;15.080;2022-11-28T01:55:32;11.50;77.30
70107;DHT22;57473;37.508;15.080;2022-11-28T01:58:01;11.50;78.50
70107;DHT22;57473;37.508;15.080;2022-11-28T02:00:28;11.50;78.80
70107;DHT22;57473;37.508;15.080;2022-11-28T02:03:02;11.50;77.40
70107;DHT22;57473;37.508;15.080;2022-11-28T02:05:31;11.40;78.50
70107;DHT22;57473;37.508;15.080;2022-11-28T02:07:59;11.40;77.20
70107;DHT22;57473;37.508;15.080;2022-11-28T02:10:43;11.40;78.00
70107;DHT22;57473;37.508;15.080;2022-11-28T02:13:40;11.30;79.70
70107;DHT22;57473;37.508;15.080;2022-11-28T02:30:03;10.90;83.40
70107;DHT22;57473;37.508;15.080;2022-11-28T02:40:52;10.60;85.70
70107;DHT22;57473;37.508;15.080;2022-11-28T02:46:19;10.60;85.30
70107;DHT22;57473;37.508;15.080;2022-11-28T02:54:09;10.70;85.60
70107;DHT22;57473;37.508;15.080;2022-11-28T02:56:36;10.60;85.60
70107;DHT22;57473;37.508;15.080;2022-11-28T02:59:16;10.60;86.80
70107;DHT22;57473;37.508;15.080;2022-11-28T03:01:44;10.50;87.20
70107;DHT22;57473;37.508;15.080;2022-11-28T03:10:24;10.40;89.00
70107;DHT22;57473;37.508;15.080;2022-11-28T03:16:05;10.40;88.90
70107;DHT22;57473;37.508;15.080;2022-11-28T03:18:41;10.40;89.00
70107;DHT22;57473;37.508;15.080;2022-11-28T03:21:29;10.40;89.20
70107;DHT22;57473;37.508;15.080;2022-11-28T03:24:09;10.40;89.20
70107;DHT22;57473;37.508;15.080;2022-11-28T03:29:15;10.40;89.50
70107;DHT22;57473;37.508;15.080;2022-11-28T03:31:52;10.40;89.80
70107;DHT22;57473;37.508;15.080;2022-11-28T03:34:26;10.40;90.10
70107;DHT22;57473;37.508;15.080;2022-11-28T03:37:04;10.30;90.00
70107;DHT22;57473;37.508;15.080;2022-11-28T03:39:38;10.30;90.40
70107;DHT22;57473;37.508;15.080;2022-11-28T03:42:16;10.20;90.80
70107;DHT22;57473;37.508;15.080;2022-11-28T03:44:48;10.20;90.50
70107;DHT22;57473;37.508;15.080;2022-11-28T03:47:20;10.20;90.70
70107;DHT22;57473;37.508;15.080;2022-11-28T03:49:50;10.10;91.00
70107;DHT22;57473;37.508;15.080;2022-11-28T03:52:36;10.10;91.30
70107;DHT22;57473;37.508;15.080;2022-11-28T03:55:20;10.10;91.30
70107;DHT22;57473;37.508;15.080;2022-11-28T03:57:57;10.10;91.30
70107;DHT22;57473;37.508;15.080;2022-11-28T04:00:26;10.10;91.20
70107;DHT22;57473;37.508;15.080;2022-11-28T04:05:46;10.00;91.60
70107;DHT22;57473;37.508;15.080;2022-11-28T04:08:25;10.00;91.70
70107;DHT22;57473;37.508;15.080;2022-11-28T04:16:06;9.90;92.30
70107;DHT22;57473;37.508;15.080;2022-11-28T04:24:16;9.90;91.60
70107;DHT22;57473;37.508;15.080;2022-11-28T04:26:52;10.00;91.20
70107;DHT22;57473;37.508;15.080;2022-11-28T04:29:22;10.10;90.80
70107;DHT22;57473;37.508;15.080;2022-11-28T04:31:53;10.10;90.80
70107;DHT22;57473;37.508;15.080;2022-11-28T04:34:23;10.10;90.80
70107;DHT22;57473;37.508;15.080;2022-11-28T04:36:52;10.10;91.20
70107;DHT22;57473;37.508;15.080;2022-11-28T04:39:23;10.10;91.20
70107;DHT22;57473;37.508;15.080;2022-11-28T04:42:04;10.10;91.70
70107;DHT22;57473;37.508;15.080;2022-11-28T04:47:04;10.00;93.00
70107;DHT22;57473;37.508;15.080;2022-11-28T04:49:32;10.00;93.60
70107;DHT22;57473;37.508;15.080;2022-11-28T04:54:44;9.80;94.70
70107;DHT22;57473;37.508;15.080;2022-11-28T04:57:38;9.80;96.10
70107;DHT22;57473;37.508;15.080;2022-11-28T05:00:14;9.70;96.30
70107;DHT22;57473;37.508;15.080;2022-11-28T05:02:44;9.70;96.50
70107;DHT22;57473;37.508;15.080;2022-11-28T05:05:18;9.60;96.80
70107;DHT22;57473;37.508;15.080;2022-11-28T05:07:46;9.60;97.10
70107;DHT22;57473;37.508;15.080;2022-11-28T05:10:14;9.60;97.40
70107;DHT22;57473;37.508;15.080;2022-11-28T05:12:42;9.60;97.70
70107;DHT22;57473;37.508;15.080;2022-11-28T05:15:10;9.60;98.20
70107;DHT22;57473;37.508;15.080;2022-11-28T05:17:38;9.60;98.00
70107;DHT22;57473;37.508;15.080;2022-11-28T05:20:09;9.60;98.00
70107;DHT22;57473;37.508;15.080;2022-11-28T05:22:36;9.50;98.20
70107;DHT22;57473;37.508;15.080;2022-11-28T05:25:03;9.50;98.50
70107;DHT22;57473;37.508;15.080;2022-11-28T05:27:31;9.50;98.50
70107;DHT22;57473;37.508;15.080;2022-11-28T05:29:58;9.50;98.50
70107;DHT22;57473;37.508;15.080;2022-11-28T05:32:28;9.60;98.00
70107;DHT22;57473;37.508;15.080;2022-11-28T05:34:56;9.60;97.70
70107;DHT22;57473;37.508;15.080;2022-11-28T05:37:24;9.70;97.10
70107;DHT22;57473;37.508;15.080;2022-11-28T05:39:51;9.70;96.50
70107;DHT22;57473;37.508;15.080;2022-11-28T05:42:19;9.80;96.00
70107;DHT22;57473;37.508;15.080;2022-11-28T05:44:47;9.90;95.90
70107;DHT22;57473;37.508;15.080;2022-11-28T05:47:17;9.90;95.70
70107;DHT22;57473;37.508;15.080;2022-11-28T05:49:45;9.90;95.80
70107;DHT22;57473;37.508;15.080;2022-11-28T05:52:13;9.80;96.00
70107;DHT22;57473;37.508;15.080;2022-11-28T05:54:40;9.80;96.30
70107;DHT22;57473;37.508;15.080;2022-11-28T05:57:07;9.80;96.50
70107;DHT22;57473;37.508;15.080;2022-11-28T05:59:34;9.80;96.80
70107;DHT22;57473;37.508;15.080;2022-11-28T06:02:02;9.70;97.10
70107;DHT22;57473;37.508;15.080;2022-11-28T06:04:29;9.70;97.60
70107;DHT22;57473;37.508;15.080;2022-11-28T06:06:56;9.60;98.30
70107;DHT22;57473;37.508;15.080;2022-11-28T06:09:23;9.60;98.40
70107;DHT22;57473;37.508;15.080;2022-11-28T06:11:52;9.70;98.50
70107;DHT22;57473;37.508;15.080;2022-11-28T06:14:19;9.70;98.50
70107;DHT22;57473;37.508;15.080;2022-11-28T06:16:46;9.70;98.60
70107;DHT22;57473;37.508;15.080;2022-11-28T06:19:14;9.70;98.60
70107;DHT22;57473;37.508;15.080;2022-11-28T06:21:41;9.80;98.50
70107;DHT22;57473;37.508;15.080;2022-11-28T06:24:09;9.80;98.40
70107;DHT22;57473;37.508;15.080;2022-11-28T06:26:36;9.80;98.30
70107;DHT22;57473;37.508;15.080;2022-11-28T06:29:04;9.90;97.50
70107;DHT22;57473;37.508;15.080;2022-11-28T06:31:31;9.90;97.50
70107;DHT22;57473;37.508;15.080;2022-11-28T06:33:59;9.90;97.70
70107;DHT22;57473;37.508;15.080;2022-11-28T06:36:26;10.00;97.50
70107;DHT22;57473;37.508;15.080;2022-11-28T06:38:53;10.00;97.20
70107;DHT22;57473;37.508;15.080;2022-11-28T06:41:21;10.00;97.30
70107;DHT22;57473;37.508;15.080;2022-11-28T06:43:49;10.10;97.40
70107;DHT22;57473;37.508;15.080;2022-11-28T06:46:19;10.10;97.30
70107;DHT22;57473;37.508;15.080;2022-11-28T06:48:48;10.20;96.80
70107;DHT22;57473;37.508;15.080;2022-11-28T06:51:18;10.20;96.90
70107;DHT22;57473;37.508;15.080;2022-11-28T06:53:45;10.20;97.10
70107;DHT22;57473;37.508;15.080;2022-11-28T06:56:15;10.30;97.00
70107;DHT22;57473;37.508;15.080;2022-11-28T06:58:43;10.30;96.70
70107;DHT22;57473;37.508;15.080;2022-11-28T07:01:17;10.40;96.70
70107;DHT22;57473;37.508;15.080;2022-11-28T07:03:46;10.40;96.20
70107;DHT22;57473;37.508;15.080;2022-11-28T07:06:16;10.60;95.80
70107;DHT22;57473;37.508;15.080;2022-11-28T07:08:50;10.70;95.20
70107;DHT22;57473;37.508;15.080;2022-11-28T07:11:20;10.70;95.30
70107;DHT22;57473;37.508;15.080;2022-11-28T07:13:49;10.80;95.40
70107;DHT22;57473;37.508;15.080;2022-11-28T07:16:20;11.00;95.40
70107;DHT22;57473;37.508;15.080;2022-11-28T07:18:48;11.10;94.80
70107;DHT22;57473;37.508;15.080;2022-11-28T07:21:19;11.30;93.70
70107;DHT22;57473;37.508;15.080;2022-11-28T07:23:47;11.50;92.20
70107;DHT22;57473;37.508;15.080;2022-11-28T07:26:19;11.70;91.00
70107;DHT22;57473;37.508;15.080;2022-11-28T07:28:48;11.90;90.20
70107;DHT22;57473;37.508;15.080;2022-11-28T07:31:19;12.00;89.70
70107;DHT22;57473;37.508;15.080;2022-11-28T07:33:49;12.20;89.30
70107;DHT22;57473;37.508;15.080;2022-11-28T07:36:23;12.30;89.00
70107;DHT22;57473;37.508;15.080;2022-11-28T07:38:54;12.50;89.10
70107;DHT22;57473;37.508;15.080;2022-11-28T07:41:26;12.60;89.00
70107;DHT22;57473;37.508;15.080;2022-11-28T07:44:00;12.70;87.90
70107;DHT22;57473;37.508;15.080;2022-11-28T07:46:30;12.90;87.80
70107;DHT22;57473;37.508;15.080;2022-11-28T07:48:58;13.00;87.70
70107;DHT22;57473;37.508;15.080;2022-11-28T07:51:28;13.20;86.50
70107;DHT22;57473;37.508;15.080;2022-11-28T07:53:56;13.40;85.60
70107;DHT22;57473;37.508;15.080;2022-11-28T07:56:27;13.60;85.00
70107;DHT22;57473;37.508;15.080;2022-11-28T07:59:10;13.80;83.60
70107;DHT22;57473;37.508;15.080;2022-11-28T08:01:38;13.90;83.00
70107;DHT22;57473;37.508;15.080;2022-11-28T08:04:08;14.00;83.20
70107;DHT22;57473;37.508;15.080;2022-11-28T08:06:40;14.10;83.20
70107;DHT22;57473;37.508;15.080;2022-11-28T08:09:08;14.30;83.30
70107;DHT22;57473;37.508;15.080;2022-11-28T08:11:38;14.40;83.10
70107;DHT22;57473;37.508;15.080;2022-11-28T08:14:05;14.60;82.20
70107;DHT22;57473;37.508;15.080;2022-11-28T08:16:33;14.70;80.90
70107;DHT22;57473;37.508;15.080;2022-11-28T08:19:01;14.80;81.50
70107;DHT22;57473;37.508;15.080;2022-11-28T08:21:31;14.80;81.10
70107;DHT22;57473;37.508;15.080;2022-11-28T08:24:00;14.80;81.00
70107;DHT22;57473;37.508;15.080;2022-11-28T08:26:30;14.60;80.60
70107;DHT22;57473;37.508;15.080;2022-11-28T08:29:00;14.40;82.20
70107;DHT22;57473;37.508;15.080;2022-11-28T08:31:35;14.50;83.20
70107;DHT22;57473;37.508;15.080;2022-11-28T08:34:05;14.50;83.30
70107;DHT22;57473;37.508;15.080;2022-11-28T08:36:33;14.60;82.60
70107;DHT22;57473;37.508;15.080;2022-11-28T08:39:02;14.70;82.60
70107;DHT22;57473;37.508;15.080;2022-11-28T08:41:49;14.80;82.70
70107;DHT22;57473;37.508;15.080;2022-11-28T08:44:16;15.00;82.50
70107;DHT22;57473;37.508;15.080;2022-11-28T08:46:44;15.10;81.90
70107;DHT22;57473;37.508;15.080;2022-11-28T08:49:11;15.20;81.60
70107;DHT22;57473;37.508;15.080;2022-11-28T08:51:39;15.20;82.10
70107;DHT22;57473;37.508;15.080;2022-11-28T08:54:06;15.10;81.90
70107;DHT22;57473;37.508;15.080;2022-11-28T08:56:34;15.20;82.20
70107;DHT22;57473;37.508;15.080;2022-11-28T08:59:04;15.40;81.70
70107;DHT22;57473;37.508;15.080;2022-11-28T09:01:32;15.60;81.20
70107;DHT22;57473;37.508;15.080;2022-11-28T09:04:00;15.80;79.90
70107;DHT22;57473;37.508;15.080;2022-11-28T09:06:29;16.00;78.80
70107;DHT22;57473;37.508;15.080;2022-11-28T09:09:01;16.20;77.10
70107;DHT22;57473;37.508;15.080;2022-11-28T09:11:29;16.30;75.30
70107;DHT22;57473;37.508;15.080;2022-11-28T09:13:58;16.30;74.00
70107;DHT22;57473;37.508;15.080;2022-11-28T09:16:25;16.40;72.30
70107;DHT22;57473;37.508;15.080;2022-11-28T09:18:54;16.50;71.10
70107;DHT22;57473;37.508;15.080;2022-11-28T09:21:23;16.60;71.30
70107;DHT22;57473;37.508;15.080;2022-11-28T09:23:53;16.60;70.40
70107;DHT22;57473;37.508;15.080;2022-11-28T09:26:22;16.70;66.50
70107;DHT22;57473;37.508;15.080;2022-11-28T09:28:52;16.90;67.80
70107;DHT22;57473;37.508;15.080;2022-11-28T09:31:19;17.10;67.90
70107;DHT22;57473;37.508;15.080;2022-11-28T09:33:46;17.30;65.10
70107;DHT22;57473;37.508;15.080;2022-11-28T09:36:20;17.30;62.30
70107;DHT22;57473;37.508;15.080;2022-11-28T09:38:48;17.40;63.70
70107;DHT22;57473;37.508;15.080;2022-11-28T09:44:05;18.00;64.60
70107;DHT22;57473;37.508;15.080;2022-11-28T09:46:35;18.00;64.30
70107;DHT22;57473;37.508;15.080;2022-11-28T09:54:51;18.10;58.70
70107;DHT22;57473;37.508;15.080;2022-11-28T09:57:32;18.00;60.90
70107;DHT22;57473;37.508;15.080;2022-11-28T10:00:01;17.70;60.60
70107;DHT22;57473;37.508;15.080;2022-11-28T10:02:42;17.50;61.80
70107;DHT22;57473;37.508;15.080;2022-11-28T10:08:49;17.00;61.40
70107;DHT22;57473;37.508;15.080;2022-11-28T10:19:55;16.30;65.10
70107;DHT22;57473;37.508;15.080;2022-11-28T10:25:19;16.10;66.40
70107;DHT22;57473;37.508;15.080;2022-11-28T10:27:49;16.00;67.20
70107;DHT22;57473;37.508;15.080;2022-11-28T10:30:26;16.00;67.10
70107;DHT22;57473;37.508;15.080;2022-11-28T10:33:05;16.00;66.50
70107;DHT22;57473;37.508;15.080;2022-11-28T10:35:45;15.90;66.30
70107;DHT22;57473;37.508;15.080;2022-11-28T10:38:15;15.90;66.10
70107;DHT22;57473;37.508;15.080;2022-11-28T10:43:41;15.90;65.40
70107;DHT22;57473;37.508;15.080;2022-11-28T10:46:35;15.80;65.20
70107;DHT22;57473;37.508;15.080;2022-11-28T11:02:43;16.00;65.30
70107;DHT22;57473;37.508;15.080;2022-11-28T11:05:14;16.00;65.60
70107;DHT22;57473;37.508;15.080;2022-11-28T11:07:57;16.00;64.80
70107;DHT22;57473;37.508;15.080;2022-11-28T11:10:34;15.90;65.70
70107;DHT22;57473;37.508;15.080;2022-11-28T11:13:30;16.00;65.70
70107;DHT22;57473;37.508;15.080;2022-11-28T11:18:35;16.00;65.00
70107;DHT22;57473;37.508;15.080;2022-11-28T11:21:24;16.00;64.90
70107;DHT22;57473;37.508;15.080;2022-11-28T11:26:40;16.10;64.10
70107;DHT22;57473;37.508;15.080;2022-11-28T11:29:22;16.10;64.70
70107;DHT22;57473;37.508;15.080;2022-11-28T11:31:56;16.20;65.50
70107;DHT22;57473;37.508;15.080;2022-11-28T11:34:44;16.20;64.70
70107;DHT22;57473;37.508;15.080;2022-11-28T11:37:36;16.30;64.50
70107;DHT22;57473;37.508;15.080;2022-11-28T11:40:25;16.30;63.80
70107;DHT22;57473;37.508;15.080;2022-11-28T11:42:58;16.30;63.70
70107;DHT22;57473;37.508;15.080;2022-11-28T11:45:29;16.30;64.00
70107;DHT22;57473;37.508;15.080;2022-11-28T11:47:57;16.30;64.20
70107;DHT22;57473;37.508;15.080;2022-11-28T11:50:27;16.40;63.90
70107;DHT22;57473;37.508;15.080;2022-11-28T11:53:02;16.50;64.00
70107;DHT22;57473;37.508;15.080;2022-11-28T11:55:33;16.50;64.40
70107;DHT22;57473;37.508;15.080;2022-11-28T11:58:03;16.50;64.00
70107;DHT22;57473;37.508;15.080;2022-11-28T12:00:39;16.50;64.70
70107;DHT22;57473;37.508;15.080;2022-11-28T12:03:33;16.50;64.30
70107;DHT22;57473;37.508;15.080;2022-11-28T12:06:10;16.60;62.90
70107;DHT22;57473;37.508;15.080;2022-11-28T12:09:18;16.60;63.10
70107;DHT22;57473;37.508;15.080;2022-11-28T12:11:52;16.70;63.20
70107;DHT22;57473;37.508;15.080;2022-11-28T12:14:41;16.70;63.60
70107;DHT22;57473;37.508;15.080;2022-11-28T12:20:44;16.90;63.70
70107;DHT22;57473;37.508;15.080;2022-11-28T12:23:32;16.80;63.40
70107;DHT22;57473;37.508;15.080;2022-11-28T12:42:28;17.80;60.90
70107;DHT22;57473;37.508;15.080;2022-11-28T12:48:16;18.50;57.40
70107;DHT22;57473;37.508;15.080;2022-11-28T12:50:48;18.70;57.10
70107;DHT22;57473;37.508;15.080;2022-11-28T12:56:09;18.50;58.80
70107;DHT22;57473;37.508;15.080;2022-11-28T13:10:02;18.20;59.30
70107;DHT22;57473;37.508;15.080;2022-11-28T13:15:32;18.10;60.10
70107;DHT22;57473;37.508;15.080;2022-11-28T13:23:21;18.00;63.00
70107;DHT22;57473;37.508;15.080;2022-11-28T13:26:14;17.60;63.30
70107;DHT22;57473;37.508;15.080;2022-11-28T13:28:56;17.20;64.90
70107;DHT22;57473;37.508;15.080;2022-11-28T13:31:37;17.20;65.50
70107;DHT22;57473;37.508;15.080;2022-11-28T13:34:12;17.10;66.30
70107;DHT22;57473;37.508;15.080;2022-11-28T13:42:35;16.70;67.00
70107;DHT22;57473;37.508;15.080;2022-11-28T13:45:39;16.60;68.30
70107;DHT22;57473;37.508;15.080;2022-11-28T13:51:34;16.60;67.70
70107;DHT22;57473;37.508;15.080;2022-11-28T13:57:18;16.50;68.80
70107;DHT22;57473;37.508;15.080;2022-11-28T14:02:44;16.40;69.40
70107;DHT22;57473;37.508;15.080;2022-11-28T14:05:36;16.40;70.30
70107;DHT22;57473;37.508;15.080;2022-11-28T14:08:05;16.30;70.60
70107;DHT22;57473;37.508;15.080;2022-11-28T14:10:53;16.20;70.30
70107;DHT22;57473;37.508;15.080;2022-11-28T14:13:52;16.10;70.40
70107;DHT22;57473;37.508;15.080;2022-11-28T14:19:28;16.10;70.50
70107;DHT22;57473;37.508;15.080;2022-11-28T14:27:48;16.10;70.50
70107;DHT22;57473;37.508;15.080;2022-11-28T14:30:38;16.10;70.20
70107;DHT22;57473;37.508;15.080;2022-11-28T14:33:32;16.20;69.90
70107;DHT22;57473;37.508;15.080;2022-11-28T14:36:27;16.30;68.80
70107;DHT22;57473;37.508;15.080;2022-11-28T14:39:11;16.40;67.80
70107;DHT22;57473;37.508;15.080;2022-11-28T14:44:53;16.60;68.20
70107;DHT22;57473;37.508;15.080;2022-11-28T14:47:35;16.70;68.50
70107;DHT22;57473;37.508;15.080;2022-11-28T14:52:39;16.60;66.10
70107;DHT22;57473;37.508;15.080;2022-11-28T15:03:13;16.00;65.50
70107;DHT22;57473;37.508;15.080;2022-11-28T15:05:51;15.90;65.90
70107;DHT22;57473;37.508;15.080;2022-11-28T15:11:48;15.60;67.60
70107;DHT22;57473;37.508;15.080;2022-11-28T15:14:26;15.50;67.50
70107;DHT22;57473;37.508;15.080;2022-11-28T15:16:58;15.40;67.40
70107;DHT22;57473;37.508;15.080;2022-11-28T15:19:38;15.40;67.90
70107;DHT22;57473;37.508;15.080;2022-11-28T15:22:37;15.30;68.20
70107;DHT22;57473;37.508;15.080;2022-11-28T15:27:44;15.00;69.40
70107;DHT22;57473;37.508;15.080;2022-11-28T15:30:19;15.00;69.10
70107;DHT22;57473;37.508;15.080;2022-11-28T15:32:56;14.90;69.70
70107;DHT22;57473;37.508;15.080;2022-11-28T15:35:25;14.80;69.30
70107;DHT22;57473;37.508;15.080;2022-11-28T15:37:55;14.70;69.40
70107;DHT22;57473;37.508;15.080;2022-11-28T15:40:28;14.70;69.80
70107;DHT22;57473;37.508;15.080;2022-11-28T15:42:57;14.60;71.10
70107;DHT22;57473;37.508;15.080;2022-11-28T15:45:33;14.60;71.40
70107;DHT22;57473;37.508;15.080;2022-11-28T15:48:04;14.60;71.10
70107;DHT22;57473;37.508;15.080;2022-11-28T15:50:33;14.60;70.70
70107;DHT22;57473;37.508;15.080;2022-11-28T15:53:03;14.60;71.50
70107;DHT22;57473;37.508;15.080;2022-11-28T15:55:32;14.70;71.70
70107;DHT22;57473;37.508;15.080;2022-11-28T15:58:28;14.70;71.00
70107;DHT22;57473;37.508;15.080;2022-11-28T16:01:21;14.60;70.80
70107;DHT22;57473;37.508;15.080;2022-11-28T16:04:00;14.60;70.80
70107;DHT22;57473;37.508;15.080;2022-11-28T16:06:36;14.60;70.30
70107;DHT22;57473;37.508;15.080;2022-11-28T16:09:06;14.60;71.00
70107;DHT22;57473;37.508;15.080;2022-11-28T16:11:45;14.60;70.40
70107;DHT22;57473;37.508;15.080;2022-11-28T16:14:20;14.60;69.30
70107;DHT22;57473;37.508;15.080;2022-11-28T16:16:48;14.60;69.60
70107;DHT22;57473;37.508;15.080;2022-11-28T16:19:28;14.60;69.70
70107;DHT22;57473;37.508;15.080;2022-11-28T16:22:01;14.60;69.60
70107;DHT22;57473;37.508;15.080;2022-11-28T16:24:53;14.60;69.20
70107;DHT22;57473;37.508;15.080;2022-11-28T16:27:39;14.60;68.40
70107;DHT22;57473;37.508;15.080;2022-11-28T16:30:40;14.60;69.00
70107;DHT22;57473;37.508;15.080;2022-11-28T16:33:40;14.60;69.20
70107;DHT22;57473;37.508;15.080;2022-11-28T16:36:19;14.60;70.00
70107;DHT22;57473;37.508;15.080;2022-11-28T16:38:51;14.60;68.80
70107;DHT22;57473;37.508;15.080;2022-11-28T16:41:25;14.50;68.20
70107;DHT22;57473;37.508;15.080;2022-11-28T16:43:59;14.50;68.80
70107;DHT22;57473;37.508;15.080;2022-11-28T16:46:40;14.40;69.00
70107;DHT22;57473;37.508;15.080;2022-11-28T16:49:39;14.40;69.30
70107;DHT22;57473;37.508;15.080;2022-11-28T16:54:59;14.30;69.20
70107;DHT22;57473;37.508;15.080;2022-11-28T16:57:44;14.30;68.00
70107;DHT22;57473;37.508;15.080;2022-11-28T17:00:12;14.30;68.60
70107;DHT22;57473;37.508;15.080;2022-11-28T17:02:39;14.30;68.90
70107;DHT22;57473;37.508;15.080;2022-11-28T17:05:08;14.20;68.90
70107;DHT22;57473;37.508;15.080;2022-11-28T17:07:35;14.30;68.90
70107;DHT22;57473;37.508;15.080;2022-11-28T17:10:03;14.30;69.00
70107;DHT22;57473;37.508;15.080;2022-11-28T17:12:32;14.30;69.80
70107;DHT22;57473;37.508;15.080;2022-11-28T17:15:09;14.20;70.20
70107;DHT22;57473;37.508;15.080;2022-11-28T17:17:44;14.20;70.50
70107;DHT22;57473;37.508;15.080;2022-11-28T17:20:12;14.20;69.50
70107;DHT22;57473;37.508;15.080;2022-11-28T17:22:45;14.20;69.00
70107;DHT22;57473;37.508;15.080;2022-11-28T17:25:15;14.20;68.20
70107;DHT22;57473;37.508;15.080;2022-11-28T17:27:43;14.10;68.60
70107;DHT22;57473;37.508;15.080;2022-11-28T17:30:15;14.10;69.40
70107;DHT22;57473;37.508;15.080;2022-11-28T17:32:43;14.00;69.80
70107;DHT22;57473;37.508;15.080;2022-11-28T17:35:21;14.00;70.70
70107;DHT22;57473;37.508;15.080;2022-11-28T17:37:49;13.90;70.70
70107;DHT22;57473;37.508;15.080;2022-11-28T17:40:17;13.90;70.20
70107;DHT22;57473;37.508;15.080;2022-11-28T17:42:59;13.90;70.20
70107;DHT22;57473;37.508;15.080;2022-11-28T17:45:29;13.80;71.30
70107;DHT22;57473;37.508;15.080;2022-11-28T17:47:57;13.80;71.40
70107;DHT22;57473;37.508;15.080;2022-11-28T17:50:25;13.80;71.60
70107;DHT22;57473;37.508;15.080;2022-11-28T17:52:53;13.80;73.30
70107;DHT22;57473;37.508;15.080;2022-11-28T17:55:20;13.80;73.80
70107;DHT22;57473;37.508;15.080;2022-11-28T17:57:48;13.80;74.10
70107;DHT22;57473;37.508;15.080;2022-11-28T18:00:16;13.80;74.80
70107;DHT22;57473;37.508;15.080;2022-11-28T18:02:43;13.80;74.40
70107;DHT22;57473;37.508;15.080;2022-11-28T18:05:13;13.80;74.60
70107;DHT22;57473;37.508;15.080;2022-11-28T18:07:44;13.80;75.20
70107;DHT22;57473;37.508;15.080;2022-11-28T18:10:12;13.80;76.10
70107;DHT22;57473;37.508;15.080;2022-11-28T18:12:42;13.80;76.10
70107;DHT22;57473;37.508;15.080;2022-11-28T18:15:10;13.80;77.00
70107;DHT22;57473;37.508;15.080;2022-11-28T18:17:37;13.80;77.60
70107;DHT22;57473;37.508;15.080;2022-11-28T18:20:05;13.80;78.10
70107;DHT22;57473;37.508;15.080;2022-11-28T18:22:33;13.80;77.30
70107;DHT22;57473;37.508;15.080;2022-11-28T18:25:01;13.80;76.60
70107;DHT22;57473;37.508;15.080;2022-11-28T18:27:29;13.80;76.10
70107;DHT22;57473;37.508;15.080;2022-11-28T18:30:03;13.90;76.20
70107;DHT22;57473;37.508;15.080;2022-11-28T18:32:34;13.90;76.20
70107;DHT22;57473;37.508;15.080;2022-11-28T18:35:02;13.90;77.30
70107;DHT22;57473;37.508;15.080;2022-11-28T18:37:29;14.00;76.80
70107;DHT22;57473;37.508;15.080;2022-11-28T18:39:57;14.00;77.10
70107;DHT22;57473;37.508;15.080;2022-11-28T18:42:25;14.10;76.80
70107;DHT22;57473;37.508;15.080;2022-11-28T18:44:53;14.10;76.10
70107;DHT22;57473;37.508;15.080;2022-11-28T18:47:21;14.10;76.90
70107;DHT22;57473;37.508;15.080;2022-11-28T18:49:48;14.10;76.80
70107;DHT22;57473;37.508;15.080;2022-11-28T18:52:16;14.10;76.20
70107;DHT22;57473;37.508;15.080;2022-11-28T18:54:44;14.10;75.90
70107;DHT22;57473;37.508;15.080;2022-11-28T18:57:13;14.00;76.10
70107;DHT22;57473;37.508;15.080;2022-11-28T18:59:41;14.00;76.40
70107;DHT22;57473;37.508;15.080;2022-11-28T19:02:18;14.00;77.30
70107;DHT22;57473;37.508;15.080;2022-11-28T19:04:47;14.00;76.80
70107;DHT22;57473;37.508;15.080;2022-11-28T19:07:17;14.00;77.10
70107;DHT22;57473;37.508;15.080;2022-11-28T19:09:44;14.00;77.30
70107;DHT22;57473;37.508;15.080;2022-11-28T19:12:12;14.00;77.40